sensor_id;sensor_type;location;lat;lon;timestamp;pressure;altitude;pressure_sealevel;temperature;humidity
79138;BME280;68544;45.566;10.238;2023-04-24T00:01:34;98811.34;;;18.10;52.77
79138;BME280;68544;45.566;10.238;2023-04-24T00:04:02;98808.00;;;17.98;53.63
79138;BME280;68544;45.566;10.238;2023-04-24T00:06:28;98814.31;;;18.03;52.72
79138;BME280;68544;45.566;10.238;2023-04-24T00:08:59;98832.97;;;18.17;52.65
79138;BME280;68544;45.566;10.238;2023-04-24T00:11:25;98834.81;;;18.06;53.84
79138;BME280;68544;45.566;10.238;2023-04-24T00:13:50;98834.38;;;18.24;52.93
79138;BME280;68544;45.566;10.238;2023-04-24T00:16:16;98834.03;;;18.10;54.05
79138;BME280;68544;45.566;10.238;2023-04-24T00:18:41;98829.97;;;18.18;53.95
79138;BME280;68544;45.566;10.238;2023-04-24T00:21:06;98827.69;;;18.05;55.07
79138;BME280;68544;45.566;10.238;2023-04-24T00:23:32;98824.88;;;17.90;56.09
79138;BME280;68544;45.566;10.238;2023-04-24T00:25:57;98820.28;;;17.95;56.55
79138;BME280;68544;45.566;10.238;2023-04-24T00:28:23;98822.13;;;17.90;56.82
79138;BME280;68544;45.566;10.238;2023-04-24T00:30:48;98812.50;;;17.77;56.98
79138;BME280;68544;45.566;10.238;2023-04-24T00:33:13;98812.28;;;17.84;56.87
79138;BME280;68544;45.566;10.238;2023-04-24T00:35:39;98816.22;;;17.98;56.37
79138;BME280;68544;45.566;10.238;2023-04-24T00:38:05;98816.44;;;17.91;56.50
79138;BME280;68544;45.566;10.238;2023-04-24T00:40:30;98818.94;;;18.03;56.68
79138;BME280;68544;45.566;10.238;2023-04-24T00:42:56;98810.19;;;17.96;57.33
79138;BME280;68544;45.566;10.238;2023-04-24T00:45:21;98810.69;;;17.93;55.80
79138;BME280;68544;45.566;10.238;2023-04-24T00:47:48;98799.72;;;17.83;57.20
79138;BME280;68544;45.566;10.238;2023-04-24T00:50:14;98799.94;;;17.76;56.17
79138;BME280;68544;45.566;10.238;2023-04-24T00:52:40;98794.22;;;17.78;57.16
79138;BME280;68544;45.566;10.238;2023-04-24T00:55:06;98775.69;;;17.85;57.35
79138;BME280;68544;45.566;10.238;2023-04-24T00:57:32;98774.53;;;17.71;57.74
79138;BME280;68544;45.566;10.238;2023-04-24T00:59:58;98785.13;;;17.62;57.91
79138;BME280;68544;45.566;10.238;2023-04-24T01:02:23;98786.97;;;17.57;56.98
79138;BME280;68544;45.566;10.238;2023-04-24T01:04:50;98785.28;;;17.51;57.50
79138;BME280;68544;45.566;10.238;2023-04-24T01:07:18;98789.19;;;17.60;57.16
79138;BME280;68544;45.566;10.238;2023-04-24T01:09:47;98799.16;;;17.81;56.46
79138;BME280;68544;45.566;10.238;2023-04-24T01:12:14;98812.19;;;17.69;57.32
79138;BME280;68544;45.566;10.238;2023-04-24T01:14:40;98814.38;;;17.72;58.06
79138;BME280;68544;45.566;10.238;2023-04-24T01:17:05;98832.63;;;17.66;59.90
79138;BME280;68544;45.566;10.238;2023-04-24T01:19:31;98831.19;;;17.59;62.74
79138;BME280;68544;45.566;10.238;2023-04-24T01:22:02;98818.81;;;17.19;66.12
79138;BME280;68544;45.566;10.238;2023-04-24T01:24:28;98822.63;;;17.18;67.61
79138;BME280;68544;45.566;10.238;2023-04-24T01:26:53;98816.50;;;17.06;69.43
79138;BME280;68544;45.566;10.238;2023-04-24T01:29:19;98827.03;;;16.93;69.52
79138;BME280;68544;45.566;10.238;2023-04-24T01:31:44;98827.78;;;16.88;70.81
79138;BME280;68544;45.566;10.238;2023-04-24T01:34:10;98827.91;;;16.98;70.95
79138;BME280;68544;45.566;10.238;2023-04-24T01:36:35;98834.94;;;16.94;69.07
79138;BME280;68544;45.566;10.238;2023-04-24T01:39:01;98834.94;;;16.94;68.43
79138;BME280;68544;45.566;10.238;2023-04-24T01:41:27;98831.66;;;16.92;67.54
79138;BME280;68544;45.566;10.238;2023-04-24T01:43:53;98825.47;;;17.02;68.72
79138;BME280;68544;45.566;10.238;2023-04-24T01:46:19;98826.38;;;16.59;69.80
79138;BME280;68544;45.566;10.238;2023-04-24T01:48:45;98825.84;;;16.62;69.04
79138;BME280;68544;45.566;10.238;2023-04-24T01:51:10;98818.41;;;16.79;68.67
79138;BME280;68544;45.566;10.238;2023-04-24T01:53:35;98825.91;;;16.67;68.78
79138;BME280;68544;45.566;10.238;2023-04-24T01:56:01;98817.44;;;16.64;68.58
79138;BME280;68544;45.566;10.238;2023-04-24T01:58:26;98822.56;;;16.60;68.43
79138;BME280;68544;45.566;10.238;2023-04-24T02:00:52;98827.09;;;16.33;68.87
79138;BME280;68544;45.566;10.238;2023-04-24T02:03:17;98832.66;;;16.43;68.55
79138;BME280;68544;45.566;10.238;2023-04-24T02:05:45;98825.59;;;16.42;67.97
79138;BME280;68544;45.566;10.238;2023-04-24T02:08:11;98820.41;;;16.62;69.07
79138;BME280;68544;45.566;10.238;2023-04-24T02:10:36;98820.59;;;16.55;69.01
79138;BME280;68544;45.566;10.238;2023-04-24T02:13:01;98821.66;;;16.33;69.91
79138;BME280;68544;45.566;10.238;2023-04-24T02:15:27;98825.91;;;16.45;70.35
79138;BME280;68544;45.566;10.238;2023-04-24T02:17:52;98823.41;;;16.22;71.07
79138;BME280;68544;45.566;10.238;2023-04-24T02:20:18;98826.06;;;15.96;72.47
79138;BME280;68544;45.566;10.238;2023-04-24T02:22:43;98823.03;;;16.14;72.59
79138;BME280;68544;45.566;10.238;2023-04-24T02:25:08;98824.91;;;16.30;71.88
79138;BME280;68544;45.566;10.238;2023-04-24T02:27:34;98831.47;;;16.34;71.21
79138;BME280;68544;45.566;10.238;2023-04-24T02:29:59;98823.88;;;16.36;72.02
79138;BME280;68544;45.566;10.238;2023-04-24T02:32:25;98830.25;;;16.25;72.84
79138;BME280;68544;45.566;10.238;2023-04-24T02:34:50;98817.41;;;16.20;72.98
79138;BME280;68544;45.566;10.238;2023-04-24T02:37:16;98813.34;;;16.23;73.05
79138;BME280;68544;45.566;10.238;2023-04-24T02:39:41;98809.22;;;16.20;72.86
79138;BME280;68544;45.566;10.238;2023-04-24T02:42:06;98814.56;;;16.32;71.98
79138;BME280;68544;45.566;10.238;2023-04-24T02:44:33;98826.44;;;16.26;71.90
79138;BME280;68544;45.566;10.238;2023-04-24T02:46:58;98827.47;;;16.20;70.90
79138;BME280;68544;45.566;10.238;2023-04-24T02:49:23;98834.31;;;16.22;72.36
79138;BME280;68544;45.566;10.238;2023-04-24T02:51:49;98831.75;;;16.16;73.63
79138;BME280;68544;45.566;10.238;2023-04-24T02:54:14;98838.88;;;16.17;73.45
79138;BME280;68544;45.566;10.238;2023-04-24T02:56:40;98839.53;;;16.07;74.15
79138;BME280;68544;45.566;10.238;2023-04-24T02:59:05;98850.94;;;16.04;74.62
79138;BME280;68544;45.566;10.238;2023-04-24T03:01:30;98843.97;;;16.13;73.10
79138;BME280;68544;45.566;10.238;2023-04-24T03:03:56;98836.16;;;16.17;72.60
79138;BME280;68544;45.566;10.238;2023-04-24T03:06:21;98846.97;;;16.12;72.07
79138;BME280;68544;45.566;10.238;2023-04-24T03:08:47;98851.09;;;16.14;73.08
79138;BME280;68544;45.566;10.238;2023-04-24T03:11:12;98853.75;;;15.93;73.49
79138;BME280;68544;45.566;10.238;2023-04-24T03:13:37;98849.31;;;15.87;72.26
79138;BME280;68544;45.566;10.238;2023-04-24T03:16:03;98855.28;;;15.84;72.92
79138;BME280;68544;45.566;10.238;2023-04-24T03:18:29;98842.72;;;15.82;72.96
79138;BME280;68544;45.566;10.238;2023-04-24T03:20:54;98846.03;;;15.85;74.06
79138;BME280;68544;45.566;10.238;2023-04-24T03:23:19;98814.69;;;15.32;73.88
79138;BME280;68544;45.566;10.238;2023-04-24T03:25:45;98838.38;;;15.48;75.10
79138;BME280;68544;45.566;10.238;2023-04-24T03:28:10;98841.59;;;15.45;73.68
79138;BME280;68544;45.566;10.238;2023-04-24T03:30:36;98821.00;;;15.49;76.12
79138;BME280;68544;45.566;10.238;2023-04-24T03:33:01;98814.09;;;15.30;75.93
79138;BME280;68544;45.566;10.238;2023-04-24T03:35:26;98811.22;;;15.37;75.49
79138;BME280;68544;45.566;10.238;2023-04-24T03:37:52;98819.13;;;15.38;76.60
79138;BME280;68544;45.566;10.238;2023-04-24T03:40:17;98823.84;;;15.26;77.08
79138;BME280;68544;45.566;10.238;2023-04-24T03:42:42;98820.75;;;15.06;75.96
79138;BME280;68544;45.566;10.238;2023-04-24T03:45:08;98818.94;;;14.95;77.68
79138;BME280;68544;45.566;10.238;2023-04-24T03:47:34;98815.38;;;14.94;77.48
79138;BME280;68544;45.566;10.238;2023-04-24T03:49:59;98809.63;;;15.08;76.20
79138;BME280;68544;45.566;10.238;2023-04-24T03:52:24;98803.47;;;15.29;76.53
79138;BME280;68544;45.566;10.238;2023-04-24T03:54:50;98796.53;;;15.21;75.36
79138;BME280;68544;45.566;10.238;2023-04-24T03:57:15;98788.03;;;15.01;77.26
79138;BME280;68544;45.566;10.238;2023-04-24T03:59:40;98777.66;;;14.53;78.70
79138;BME280;68544;45.566;10.238;2023-04-24T04:02:05;98763.72;;;14.50;77.60
79138;BME280;68544;45.566;10.238;2023-04-24T04:04:31;98754.97;;;14.76;76.87
79138;BME280;68544;45.566;10.238;2023-04-24T04:06:56;98761.28;;;14.93;75.88
79138;BME280;68544;45.566;10.238;2023-04-24T04:09:21;98762.41;;;14.80;75.87
79138;BME280;68544;45.566;10.238;2023-04-24T04:11:47;98766.88;;;15.03;77.97
79138;BME280;68544;45.566;10.238;2023-04-24T04:14:12;98769.50;;;14.98;76.57
79138;BME280;68544;45.566;10.238;2023-04-24T04:16:37;98773.47;;;15.07;76.13
79138;BME280;68544;45.566;10.238;2023-04-24T04:19:03;98767.44;;;15.05;76.87
79138;BME280;68544;45.566;10.238;2023-04-24T04:21:29;98771.56;;;15.08;77.99
79138;BME280;68544;45.566;10.238;2023-04-24T04:23:56;98772.06;;;15.21;77.48
79138;BME280;68544;45.566;10.238;2023-04-24T04:26:21;98775.94;;;15.25;77.17
79138;BME280;68544;45.566;10.238;2023-04-24T04:28:50;98772.75;;;15.45;75.76
79138;BME280;68544;45.566;10.238;2023-04-24T04:31:16;98778.44;;;15.43;76.96
79138;BME280;68544;45.566;10.238;2023-04-24T04:33:41;98767.63;;;15.32;76.56
79138;BME280;68544;45.566;10.238;2023-04-24T04:36:06;98779.16;;;15.39;75.90
79138;BME280;68544;45.566;10.238;2023-04-24T04:38:33;98775.72;;;15.43;75.04
79138;BME280;68544;45.566;10.238;2023-04-24T04:40:58;98782.38;;;15.52;75.73
79138;BME280;68544;45.566;10.238;2023-04-24T04:43:24;98777.19;;;15.51;75.16
79138;BME280;68544;45.566;10.238;2023-04-24T04:45:50;98793.00;;;15.21;75.51
79138;BME280;68544;45.566;10.238;2023-04-24T04:48:17;98783.81;;;14.93;75.59
79138;BME280;68544;45.566;10.238;2023-04-24T04:50:43;98792.31;;;14.97;74.90
79138;BME280;68544;45.566;10.238;2023-04-24T04:53:09;98788.78;;;15.13;75.15
79138;BME280;68544;45.566;10.238;2023-04-24T04:55:34;98795.63;;;14.99;75.81
79138;BME280;68544;45.566;10.238;2023-04-24T04:58:00;98800.16;;;15.10;74.78
79138;BME280;68544;45.566;10.238;2023-04-24T05:00:26;98794.72;;;15.10;74.61
79138;BME280;68544;45.566;10.238;2023-04-24T05:02:52;98791.03;;;15.16;74.16
79138;BME280;68544;45.566;10.238;2023-04-24T05:05:17;98791.78;;;15.28;73.13
79138;BME280;68544;45.566;10.238;2023-04-24T05:07:43;98793.91;;;15.26;74.02
79138;BME280;68544;45.566;10.238;2023-04-24T05:10:09;98786.00;;;15.25;75.13
79138;BME280;68544;45.566;10.238;2023-04-24T05:12:34;98785.53;;;15.44;73.68
79138;BME280;68544;45.566;10.238;2023-04-24T05:15:00;98795.16;;;15.35;74.76
79138;BME280;68544;45.566;10.238;2023-04-24T05:17:25;98790.63;;;15.24;73.88
79138;BME280;68544;45.566;10.238;2023-04-24T05:19:51;98786.66;;;15.32;72.79
79138;BME280;68544;45.566;10.238;2023-04-24T05:22:16;98788.97;;;15.23;71.93
79138;BME280;68544;45.566;10.238;2023-04-24T05:24:43;98779.03;;;14.84;72.98
79138;BME280;68544;45.566;10.238;2023-04-24T05:27:09;98782.72;;;14.50;74.90
79138;BME280;68544;45.566;10.238;2023-04-24T05:29:34;98788.03;;;14.56;74.07
79138;BME280;68544;45.566;10.238;2023-04-24T05:32:00;98795.44;;;14.89;73.42
79138;BME280;68544;45.566;10.238;2023-04-24T05:34:25;98786.88;;;14.97;73.18
79138;BME280;68544;45.566;10.238;2023-04-24T05:36:51;98795.78;;;15.09;72.44
79138;BME280;68544;45.566;10.238;2023-04-24T05:39:17;98791.59;;;15.18;71.61
79138;BME280;68544;45.566;10.238;2023-04-24T05:41:42;98793.81;;;15.38;71.23
79138;BME280;68544;45.566;10.238;2023-04-24T05:44:08;98799.66;;;15.13;73.96
79138;BME280;68544;45.566;10.238;2023-04-24T05:46:34;98799.50;;;15.03;74.62
79138;BME280;68544;45.566;10.238;2023-04-24T05:48:59;98804.44;;;15.06;74.90
79138;BME280;68544;45.566;10.238;2023-04-24T05:51:24;98798.69;;;15.19;76.39
79138;BME280;68544;45.566;10.238;2023-04-24T05:53:50;98795.41;;;15.50;74.97
79138;BME280;68544;45.566;10.238;2023-04-24T05:56:16;98801.66;;;15.67;73.93
79138;BME280;68544;45.566;10.238;2023-04-24T05:58:41;98805.38;;;15.61;73.31
79138;BME280;68544;45.566;10.238;2023-04-24T06:01:07;98815.19;;;15.79;71.99
79138;BME280;68544;45.566;10.238;2023-04-24T06:03:32;98806.69;;;15.75;72.59
79138;BME280;68544;45.566;10.238;2023-04-24T06:05:57;98811.53;;;15.90;73.34
79138;BME280;68544;45.566;10.238;2023-04-24T06:08:23;98814.63;;;15.99;72.35
79138;BME280;68544;45.566;10.238;2023-04-24T06:10:48;98822.91;;;16.04;71.67
79138;BME280;68544;45.566;10.238;2023-04-24T06:13:13;98820.13;;;16.20;70.96
79138;BME280;68544;45.566;10.238;2023-04-24T06:15:39;98824.72;;;16.20;70.99
79138;BME280;68544;45.566;10.238;2023-04-24T06:18:05;98826.03;;;16.34;70.36
79138;BME280;68544;45.566;10.238;2023-04-24T06:20:31;98830.34;;;16.30;68.49
79138;BME280;68544;45.566;10.238;2023-04-24T06:22:56;98828.22;;;16.37;69.43
79138;BME280;68544;45.566;10.238;2023-04-24T06:25:21;98821.66;;;16.33;68.51
79138;BME280;68544;45.566;10.238;2023-04-24T06:27:47;98819.72;;;16.50;68.93
79138;BME280;68544;45.566;10.238;2023-04-24T06:30:12;98819.44;;;16.73;67.45
79138;BME280;68544;45.566;10.238;2023-04-24T06:32:37;98819.56;;;16.62;66.55
79138;BME280;68544;45.566;10.238;2023-04-24T06:35:03;98817.44;;;16.90;65.57
79138;BME280;68544;45.566;10.238;2023-04-24T06:37:29;98802.03;;;17.01;63.18
79138;BME280;68544;45.566;10.238;2023-04-24T06:39:54;98792.75;;;17.33;61.51
79138;BME280;68544;45.566;10.238;2023-04-24T06:42:20;98809.59;;;17.25;62.80
79138;BME280;68544;45.566;10.238;2023-04-24T06:44:46;98805.03;;;17.63;63.93
79138;BME280;68544;45.566;10.238;2023-04-24T06:47:11;98806.75;;;17.74;64.10
79138;BME280;68544;45.566;10.238;2023-04-24T06:49:39;98806.25;;;17.82;60.75
79138;BME280;68544;45.566;10.238;2023-04-24T06:52:05;98808.56;;;18.00;60.32
79138;BME280;68544;45.566;10.238;2023-04-24T06:54:31;98813.81;;;18.11;59.87
79138;BME280;68544;45.566;10.238;2023-04-24T06:56:56;98818.06;;;18.39;61.40
79138;BME280;68544;45.566;10.238;2023-04-24T06:59:23;98821.91;;;18.43;61.43
79138;BME280;68544;45.566;10.238;2023-04-24T07:01:49;98826.41;;;18.69;58.87
79138;BME280;68544;45.566;10.238;2023-04-24T07:04:14;98827.06;;;19.17;58.29
79138;BME280;68544;45.566;10.238;2023-04-24T07:06:39;98829.25;;;19.15;58.40
79138;BME280;68544;45.566;10.238;2023-04-24T07:09:05;98829.88;;;19.42;58.17
79138;BME280;68544;45.566;10.238;2023-04-24T07:11:30;98827.69;;;19.69;55.29
79138;BME280;68544;45.566;10.238;2023-04-24T07:13:56;98832.03;;;19.90;54.81
79138;BME280;68544;45.566;10.238;2023-04-24T07:16:22;98837.75;;;20.14;55.47
79138;BME280;68544;45.566;10.238;2023-04-24T07:18:47;98847.31;;;20.41;56.21
79138;BME280;68544;45.566;10.238;2023-04-24T07:21:12;98845.16;;;20.28;54.26
79138;BME280;68544;45.566;10.238;2023-04-24T07:23:38;98838.50;;;20.55;52.24
79138;BME280;68544;45.566;10.238;2023-04-24T07:26:03;98833.06;;;20.34;51.58
79138;BME280;68544;45.566;10.238;2023-04-24T07:28:29;98843.50;;;20.37;48.91
79138;BME280;68544;45.566;10.238;2023-04-24T07:30:57;98852.53;;;21.02;49.98
79138;BME280;68544;45.566;10.238;2023-04-24T07:33:25;98847.53;;;21.14;47.27
79138;BME280;68544;45.566;10.238;2023-04-24T07:35:50;98853.41;;;21.41;50.27
79138;BME280;68544;45.566;10.238;2023-04-24T07:38:15;98859.56;;;21.28;46.37
79138;BME280;68544;45.566;10.238;2023-04-24T07:40:41;98854.53;;;21.40;47.86
79138;BME280;68544;45.566;10.238;2023-04-24T07:43:06;98850.09;;;21.78;47.31
79138;BME280;68544;45.566;10.238;2023-04-24T07:45:32;98839.25;;;21.96;47.79
79138;BME280;68544;45.566;10.238;2023-04-24T07:48:01;98835.16;;;22.23;45.14
79138;BME280;68544;45.566;10.238;2023-04-24T07:50:26;98839.81;;;23.12;44.07
79138;BME280;68544;45.566;10.238;2023-04-24T07:52:51;98841.69;;;23.53;42.37
79138;BME280;68544;45.566;10.238;2023-04-24T07:55:17;98846.09;;;24.05;41.18
79138;BME280;68544;45.566;10.238;2023-04-24T07:57:42;98842.16;;;26.22;34.06
79138;BME280;68544;45.566;10.238;2023-04-24T08:00:07;98840.59;;;26.08;34.35
79138;BME280;68544;45.566;10.238;2023-04-24T08:02:33;98840.56;;;27.51;30.35
79138;BME280;68544;45.566;10.238;2023-04-24T08:04:58;98843.03;;;27.78;30.59
79138;BME280;68544;45.566;10.238;2023-04-24T08:07:23;98837.94;;;32.38;23.03
79138;BME280;68544;45.566;10.238;2023-04-24T08:09:48;98837.38;;;34.18;19.31
79138;BME280;68544;45.566;10.238;2023-04-24T08:12:14;98837.22;;;36.10;17.52
79138;BME280;68544;45.566;10.238;2023-04-24T08:14:39;98837.19;;;37.35;14.84
79138;BME280;68544;45.566;10.238;2023-04-24T08:17:05;98837.91;;;37.89;14.05
79138;BME280;68544;45.566;10.238;2023-04-24T08:19:30;98837.66;;;37.47;14.52
79138;BME280;68544;45.566;10.238;2023-04-24T08:21:55;98847.63;;;38.10;14.14
79138;BME280;68544;45.566;10.238;2023-04-24T08:24:22;98840.34;;;35.72;16.01
79138;BME280;68544;45.566;10.238;2023-04-24T08:26:47;98847.66;;;31.34;20.93
79138;BME280;68544;45.566;10.238;2023-04-24T08:29:15;98845.19;;;29.20;24.37
79138;BME280;68544;45.566;10.238;2023-04-24T08:31:40;98829.97;;;28.51;26.00
79138;BME280;68544;45.566;10.238;2023-04-24T08:34:06;98840.28;;;27.44;27.72
79138;BME280;68544;45.566;10.238;2023-04-24T08:36:31;98847.72;;;27.26;28.11
79138;BME280;68544;45.566;10.238;2023-04-24T08:38:57;98843.88;;;27.45;27.99
79138;BME280;68544;45.566;10.238;2023-04-24T08:41:23;98840.91;;;27.75;26.52
79138;BME280;68544;45.566;10.238;2023-04-24T08:43:51;98840.53;;;28.20;26.48
79138;BME280;68544;45.566;10.238;2023-04-24T08:46:17;98837.97;;;28.90;25.38
79138;BME280;68544;45.566;10.238;2023-04-24T08:48:43;98826.88;;;31.19;21.95
79138;BME280;68544;45.566;10.238;2023-04-24T08:51:09;98835.91;;;34.92;16.65
79138;BME280;68544;45.566;10.238;2023-04-24T08:53:36;98830.16;;;35.34;16.01
79138;BME280;68544;45.566;10.238;2023-04-24T08:56:02;98836.53;;;35.57;15.23
79138;BME280;68544;45.566;10.238;2023-04-24T08:58:28;98830.00;;;38.37;13.36
79138;BME280;68544;45.566;10.238;2023-04-24T09:00:54;98831.03;;;40.71;11.41
79138;BME280;68544;45.566;10.238;2023-04-24T09:03:20;98831.97;;;41.49;10.90
79138;BME280;68544;45.566;10.238;2023-04-24T09:05:47;98832.41;;;41.04;10.73
79138;BME280;68544;45.566;10.238;2023-04-24T09:08:16;98843.72;;;41.07;10.82
79138;BME280;68544;45.566;10.238;2023-04-24T09:10:42;98837.09;;;41.95;9.74
79138;BME280;68544;45.566;10.238;2023-04-24T09:13:08;98826.75;;;39.62;11.63
79138;BME280;68544;45.566;10.238;2023-04-24T09:15:39;98836.03;;;39.48;11.71
79138;BME280;68544;45.566;10.238;2023-04-24T09:18:05;98836.44;;;38.27;12.37
79138;BME280;68544;45.566;10.238;2023-04-24T09:20:31;98831.56;;;39.72;11.42
79138;BME280;68544;45.566;10.238;2023-04-24T09:22:57;98833.91;;;39.98;11.23
79138;BME280;68544;45.566;10.238;2023-04-24T09:25:31;98835.69;;;38.65;13.12
79138;BME280;68544;45.566;10.238;2023-04-24T09:28:00;98830.59;;;41.61;11.39
79138;BME280;68544;45.566;10.238;2023-04-24T09:30:26;98821.16;;;40.35;11.61
79138;BME280;68544;45.566;10.238;2023-04-24T09:33:15;98831.22;;;42.70;9.83
79138;BME280;68544;45.566;10.238;2023-04-24T09:35:42;98835.56;;;42.74;9.92
79138;BME280;68544;45.566;10.238;2023-04-24T09:38:10;98828.50;;;42.32;10.53
79138;BME280;68544;45.566;10.238;2023-04-24T09:40:36;98825.09;;;44.03;9.06
79138;BME280;68544;45.566;10.238;2023-04-24T09:43:01;98821.16;;;44.85;8.69
79138;BME280;68544;45.566;10.238;2023-04-24T09:45:38;98817.56;;;43.93;9.02
79138;BME280;68544;45.566;10.238;2023-04-24T09:48:05;98823.56;;;42.36;10.06
79138;BME280;68544;45.566;10.238;2023-04-24T09:50:31;98812.16;;;42.93;9.56
79138;BME280;68544;45.566;10.238;2023-04-24T09:52:58;98809.50;;;44.27;8.84
79138;BME280;68544;45.566;10.238;2023-04-24T09:55:24;98804.34;;;44.22;8.93
79138;BME280;68544;45.566;10.238;2023-04-24T09:58:00;98810.16;;;42.67;10.28
79138;BME280;68544;45.566;10.238;2023-04-24T10:00:30;98811.47;;;43.32;9.64
79138;BME280;68544;45.566;10.238;2023-04-24T10:03:00;98800.00;;;43.78;9.06
79138;BME280;68544;45.566;10.238;2023-04-24T10:08:01;98816.16;;;42.96;10.04
79138;BME280;68544;45.566;10.238;2023-04-24T10:10:26;98806.72;;;41.62;10.34
79138;BME280;68544;45.566;10.238;2023-04-24T10:12:53;98812.56;;;41.82;10.83
79138;BME280;68544;45.566;10.238;2023-04-24T10:15:19;98819.00;;;42.96;9.46
79138;BME280;68544;45.566;10.238;2023-04-24T10:17:48;98815.25;;;42.53;10.38
79138;BME280;68544;45.566;10.238;2023-04-24T10:20:27;98812.16;;;42.93;9.81
79138;BME280;68544;45.566;10.238;2023-04-24T10:22:57;98812.09;;;42.97;10.09
79138;BME280;68544;45.566;10.238;2023-04-24T10:25:25;98806.56;;;43.75;9.01
79138;BME280;68544;45.566;10.238;2023-04-24T10:27:51;98812.72;;;43.51;9.68
79138;BME280;68544;45.566;10.238;2023-04-24T10:30:19;98816.66;;;40.99;11.36
79138;BME280;68544;45.566;10.238;2023-04-24T10:32:44;98814.59;;;39.79;12.64
79138;BME280;68544;45.566;10.238;2023-04-24T10:35:12;98821.38;;;39.96;12.51
79138;BME280;68544;45.566;10.238;2023-04-24T10:37:41;98826.31;;;41.05;11.64
79138;BME280;68544;45.566;10.238;2023-04-24T10:40:08;98825.84;;;41.10;11.04
79138;BME280;68544;45.566;10.238;2023-04-24T10:42:35;98819.66;;;42.27;9.05
79138;BME280;68544;45.566;10.238;2023-04-24T10:45:15;98816.78;;;42.00;10.45
79138;BME280;68544;45.566;10.238;2023-04-24T10:47:41;98821.59;;;42.07;9.95
79138;BME280;68544;45.566;10.238;2023-04-24T10:50:09;98823.50;;;41.83;10.87
79138;BME280;68544;45.566;10.238;2023-04-24T10:52:45;98828.16;;;40.19;11.55
79138;BME280;68544;45.566;10.238;2023-04-24T10:55:12;98822.38;;;41.36;10.50
79138;BME280;68544;45.566;10.238;2023-04-24T10:57:39;98829.41;;;42.26;10.30
79138;BME280;68544;45.566;10.238;2023-04-24T11:00:21;98818.75;;;39.29;12.49
79138;BME280;68544;45.566;10.238;2023-04-24T11:02:47;98816.53;;;40.65;11.26
79138;BME280;68544;45.566;10.238;2023-04-24T11:05:18;98826.22;;;37.94;13.21
79138;BME280;68544;45.566;10.238;2023-04-24T11:08:16;98829.13;;;35.46;16.23
79138;BME280;68544;45.566;10.238;2023-04-24T11:10:56;98830.28;;;32.98;19.66
79138;BME280;68544;45.566;10.238;2023-04-24T11:13:23;98838.78;;;32.70;19.84
79138;BME280;68544;45.566;10.238;2023-04-24T11:16:20;98838.69;;;31.28;20.80
79138;BME280;68544;45.566;10.238;2023-04-24T11:18:51;98838.09;;;30.50;22.73
79138;BME280;68544;45.566;10.238;2023-04-24T11:21:19;98841.69;;;30.06;23.18
79138;BME280;68544;45.566;10.238;2023-04-24T11:23:45;98836.94;;;30.06;23.09
79138;BME280;68544;45.566;10.238;2023-04-24T11:26:19;98841.03;;;30.21;21.68
79138;BME280;68544;45.566;10.238;2023-04-24T11:28:47;98828.41;;;29.70;22.88
79138;BME280;68544;45.566;10.238;2023-04-24T11:31:40;98828.19;;;29.42;24.57
79138;BME280;68544;45.566;10.238;2023-04-24T11:34:14;98832.69;;;29.88;23.37
79138;BME280;68544;45.566;10.238;2023-04-24T11:36:44;98834.22;;;29.98;23.33
79138;BME280;68544;45.566;10.238;2023-04-24T11:39:09;98826.25;;;29.34;24.92
79138;BME280;68544;45.566;10.238;2023-04-24T11:41:36;98823.94;;;29.36;24.82
79138;BME280;68544;45.566;10.238;2023-04-24T11:44:02;98816.88;;;30.70;22.78
79138;BME280;68544;45.566;10.238;2023-04-24T11:46:30;98811.38;;;31.34;21.95
79138;BME280;68544;45.566;10.238;2023-04-24T11:48:56;98816.16;;;30.04;23.69
79138;BME280;68544;45.566;10.238;2023-04-24T11:51:23;98809.88;;;28.54;25.69
79138;BME280;68544;45.566;10.238;2023-04-24T11:53:50;98803.69;;;28.40;25.66
79138;BME280;68544;45.566;10.238;2023-04-24T11:56:18;98806.16;;;28.41;26.34
79138;BME280;68544;45.566;10.238;2023-04-24T11:58:47;98810.06;;;27.60;27.49
79138;BME280;68544;45.566;10.238;2023-04-24T12:01:12;98801.09;;;27.71;27.43
79138;BME280;68544;45.566;10.238;2023-04-24T12:03:38;98806.16;;;27.61;28.62
79138;BME280;68544;45.566;10.238;2023-04-24T12:06:07;98807.59;;;28.09;27.69
79138;BME280;68544;45.566;10.238;2023-04-24T12:08:33;98798.50;;;27.32;29.15
79138;BME280;68544;45.566;10.238;2023-04-24T12:11:04;98801.38;;;26.93;28.41
79138;BME280;68544;45.566;10.238;2023-04-24T12:13:29;98799.41;;;26.93;28.86
79138;BME280;68544;45.566;10.238;2023-04-24T12:15:57;98792.88;;;26.81;28.96
79138;BME280;68544;45.566;10.238;2023-04-24T12:18:23;98801.00;;;26.07;29.84
79138;BME280;68544;45.566;10.238;2023-04-24T12:20:48;98788.91;;;26.65;30.04
79138;BME280;68544;45.566;10.238;2023-04-24T12:23:14;98784.94;;;26.48;29.55
79138;BME280;68544;45.566;10.238;2023-04-24T12:25:39;98785.75;;;26.10;30.52
79138;BME280;68544;45.566;10.238;2023-04-24T12:30:34;98775.44;;;25.49;31.89
79138;BME280;68544;45.566;10.238;2023-04-24T12:33:00;98772.50;;;25.32;32.61
79138;BME280;68544;45.566;10.238;2023-04-24T12:35:28;98778.63;;;25.06;32.68
79138;BME280;68544;45.566;10.238;2023-04-24T12:37:54;98786.06;;;25.20;32.32
79138;BME280;68544;45.566;10.238;2023-04-24T12:40:21;98774.69;;;25.21;32.37
79138;BME280;68544;45.566;10.238;2023-04-24T12:42:50;98764.81;;;25.06;32.53
79138;BME280;68544;45.566;10.238;2023-04-24T12:45:18;98765.06;;;24.96;32.79
79138;BME280;68544;45.566;10.238;2023-04-24T12:47:44;98761.78;;;24.67;33.14
79138;BME280;68544;45.566;10.238;2023-04-24T12:50:12;98755.47;;;24.67;33.33
79138;BME280;68544;45.566;10.238;2023-04-24T12:52:37;98762.84;;;24.71;34.15